createdAt,value
2018-06-28T00:00:10.149Z,81.34
2018-06-28T00:03:14.424Z,81.95
2018-06-28T00:06:18.710Z,82.24
2018-06-28T00:09:23.208Z,81.08
2018-06-28T00:12:27.559Z,81.07
2018-06-28T00:15:31.894Z,81.31
2018-06-28T00:18:36.238Z,82.43
2018-06-28T00:21:41.110Z,83.98
2018-06-28T00:24:45.566Z,83.51
2018-06-28T00:27:50.234Z,83.74
2018-06-28T00:30:54.739Z,84.47
2018-06-28T00:34:02.213Z,83.33
2018-06-28T00:37:06.515Z,82.80
2018-06-28T00:40:10.814Z,82.83
2018-06-28T00:43:16.246Z,82.00
2018-06-28T00:46:20.721Z,81.39
2018-06-28T00:49:25.342Z,81.82
2018-06-28T00:52:29.956Z,81.60
2018-06-28T00:55:34.354Z,81.53
2018-06-28T00:58:38.676Z,80.98
2018-06-28T01:01:42.739Z,81.32
2018-06-28T01:04:47.005Z,82.21
2018-06-28T01:07:51.365Z,82.07
2018-06-28T01:10:55.632Z,81.56
2018-06-28T01:14:00.122Z,81.82
2018-06-28T01:17:04.469Z,81.66
2018-06-28T01:20:09.278Z,81.35
2018-06-28T01:23:13.577Z,81.48
2018-06-28T01:26:17.867Z,80.91
2018-06-28T01:29:22.163Z,80.82
2018-06-28T01:32:26.474Z,81.55
2018-06-28T01:35:31.030Z,81.32
2018-06-28T01:38:35.585Z,80.99
2018-06-28T01:41:56.844Z,81.91
2018-06-28T01:45:01.131Z,80.95
2018-06-28T01:48:05.529Z,80.39
2018-06-28T01:51:09.955Z,80.00
2018-06-28T01:54:15.303Z,81.58
2018-06-28T01:57:19.585Z,83.51
2018-06-28T02:00:23.877Z,84.22
2018-06-28T02:03:28.530Z,84.22
2018-06-28T02:06:32.942Z,85.47
2018-06-28T02:09:37.521Z,85.13
2018-06-28T02:12:41.941Z,84.91
2018-06-28T02:15:46.225Z,85.42
2018-06-28T02:18:50.503Z,84.21
2018-06-28T02:21:54.768Z,84.67
2018-06-28T02:24:59.165Z,85.43
2018-06-28T02:28:03.482Z,85.04
2018-06-28T02:31:07.918Z,85.24
2018-06-28T02:34:13.185Z,85.98
2018-06-28T02:37:17.972Z,85.03
2018-06-28T02:40:22.274Z,85.49
2018-06-28T02:43:26.566Z,84.05
2018-06-28T02:46:30.890Z,84.22
2018-06-28T02:49:35.293Z,83.71
2018-06-28T02:52:39.843Z,83.17
2018-06-28T02:55:44.138Z,83.24
2018-06-28T02:58:48.546Z,84.36
2018-06-28T03:01:53.218Z,83.11
2018-06-28T03:04:57.498Z,83.52
2018-06-28T03:08:01.865Z,82.56
2018-06-28T03:11:06.145Z,83.39
2018-06-28T03:14:10.479Z,83.50
2018-06-28T03:17:17.745Z,83.65
2018-06-28T03:20:22.110Z,83.04
2018-06-28T03:23:26.403Z,83.18
2018-06-28T03:26:30.752Z,83.13
2018-06-28T03:29:35.738Z,83.05
2018-06-28T03:32:40.243Z,83.33
2018-06-28T03:35:44.509Z,82.95
2018-06-28T03:38:49.394Z,83.33
2018-06-28T03:41:53.682Z,83.70
2018-06-28T03:44:57.988Z,85.74
2018-06-28T03:48:02.810Z,85.96
2018-06-28T03:51:07.492Z,85.64
2018-06-28T03:54:12.113Z,84.94
2018-06-28T03:57:16.462Z,84.99
2018-06-28T04:00:20.821Z,85.54
2018-06-28T04:03:25.891Z,86.02
2018-06-28T04:06:30.336Z,85.10
2018-06-28T04:09:34.633Z,84.76
2018-06-28T04:12:39.530Z,84.24
2018-06-28T04:15:44.493Z,83.54
2018-06-28T04:18:49.046Z,82.82
2018-06-28T04:21:53.415Z,84.29
2018-06-28T04:25:01.367Z,84.87
2018-06-28T04:28:06.661Z,86.05
2018-06-28T04:31:11.005Z,85.67
2018-06-28T04:34:15.934Z,84.62
2018-06-28T04:37:20.449Z,83.83
2018-06-28T04:40:24.766Z,84.31
2018-06-28T04:43:29.704Z,86.41
2018-06-28T04:46:34.662Z,87.78
2018-06-28T04:49:39.285Z,88.61
2018-06-28T04:52:43.603Z,87.53
2018-06-28T04:55:47.902Z,86.30
2018-06-28T04:58:52.229Z,84.45
2018-06-28T05:01:56.481Z,82.04
2018-06-28T05:05:01.083Z,82.47
2018-06-28T05:08:05.414Z,82.85
2018-06-28T05:11:10.442Z,81.55
2018-06-28T05:14:15.159Z,81.65
2018-06-28T05:17:19.596Z,81.71
2018-06-28T05:20:25.091Z,83.14
2018-06-28T05:23:30.662Z,84.12
2018-06-28T05:26:35.424Z,84.80
2018-06-28T05:29:41.113Z,85.25
2018-06-28T05:32:45.550Z,84.93
2018-06-28T05:35:50.152Z,85.32
2018-06-28T05:38:56.221Z,84.51
2018-06-28T05:42:00.910Z,84.33
2018-06-28T05:45:06.499Z,85.31
2018-06-28T05:48:11.121Z,85.60
2018-06-28T05:51:15.874Z,84.51
2018-06-28T05:54:20.200Z,84.86
2018-06-28T05:57:25.653Z,84.16
2018-06-28T06:00:30.150Z,85.63
2018-06-28T06:03:39.742Z,85.54
2018-06-28T06:06:47.107Z,84.37
2018-06-28T06:09:51.479Z,85.04
2018-06-28T06:12:56.278Z,85.38
2018-06-28T06:16:00.606Z,84.70
2018-06-28T06:19:05.751Z,84.45
2018-06-28T06:22:10.105Z,84.42
2018-06-28T06:25:14.609Z,85.00
2018-06-28T06:28:19.062Z,85.49
2018-06-28T06:31:23.942Z,85.71
2018-06-28T06:34:29.211Z,85.09
2018-06-28T06:37:33.726Z,84.89
2018-06-28T06:40:38.160Z,84.66
2018-06-28T06:43:42.522Z,84.75
2018-06-28T06:46:46.805Z,85.63
2018-06-28T06:49:51.130Z,85.83
2018-06-28T06:52:56.550Z,85.68
2018-06-28T06:56:00.853Z,86.23
2018-06-28T06:59:05.396Z,86.17
2018-06-28T07:02:09.714Z,86.53
2018-06-28T07:05:13.997Z,87.18
2018-06-28T07:08:18.301Z,87.22
2018-06-28T07:11:22.683Z,87.54
2018-06-28T07:14:26.982Z,88.96
2018-06-28T07:17:31.286Z,88.56
2018-06-28T07:20:35.769Z,88.32
2018-06-28T07:23:40.093Z,88.29
2018-06-28T07:26:44.791Z,89.51
2018-06-28T07:29:49.171Z,89.38
2018-06-28T07:32:53.453Z,89.02
2018-06-28T07:35:57.807Z,89.05
2018-06-28T07:39:02.131Z,88.55
2018-06-28T07:42:07.879Z,87.87
2018-06-28T07:45:12.226Z,88.21
2018-06-28T07:48:16.753Z,87.46
2018-06-28T07:51:21.074Z,87.70
2018-06-28T07:54:26.370Z,87.51
2018-06-28T07:57:30.801Z,87.82
2018-06-28T08:00:35.101Z,86.88
2018-06-28T08:03:40.439Z,86.42
2018-06-28T08:06:45.751Z,88.13
2018-06-28T08:09:50.061Z,86.49
2018-06-28T08:12:54.379Z,86.00
2018-06-28T08:15:58.649Z,86.04
2018-06-28T08:19:03.127Z,86.72
2018-06-28T08:22:07.416Z,85.29
2018-06-28T08:25:12.954Z,84.89
2018-06-28T08:28:17.269Z,87.15
2018-06-28T08:31:21.769Z,85.20
2018-06-28T08:34:26.085Z,87.44
2018-06-28T08:37:31.439Z,88.18
2018-06-28T08:40:35.989Z,88.66
2018-06-28T08:43:40.346Z,88.38
2018-06-28T08:46:44.660Z,87.59
2018-06-28T08:49:49.333Z,86.44
2018-06-28T08:52:53.670Z,85.34
2018-06-28T08:55:58.285Z,86.76
2018-06-28T08:59:02.562Z,86.25
2018-06-28T09:02:07.228Z,88.85
2018-06-28T09:05:11.777Z,89.23
2018-06-28T09:08:16.991Z,89.69
2018-06-28T09:11:21.338Z,89.52
2018-06-28T09:14:25.644Z,89.24
2018-06-28T09:17:31.538Z,89.78
2018-06-28T09:20:35.966Z,88.74
2018-06-28T09:23:40.402Z,89.46
2018-06-28T09:26:44.741Z,89.08
2018-06-28T09:29:49.094Z,89.76
2018-06-28T09:32:53.926Z,89.65
2018-06-28T09:35:58.495Z,90.35
2018-06-28T09:39:03.206Z,90.54
2018-06-28T09:42:08.265Z,90.54
2018-06-28T09:45:12.541Z,89.87
2018-06-28T09:48:18.058Z,89.00
2018-06-28T09:51:22.619Z,88.21
2018-06-28T09:54:26.926Z,89.49
2018-06-28T09:57:31.098Z,87.96
2018-06-28T10:00:41.517Z,87.03
2018-06-28T10:03:47.454Z,87.07
2018-06-28T10:06:52.025Z,88.35
2018-06-28T10:09:56.390Z,88.61
2018-06-28T10:13:00.837Z,88.51
2018-06-28T10:16:05.825Z,88.39
2018-06-28T10:19:10.257Z,88.50
2018-06-28T10:22:14.534Z,87.74
2018-06-28T10:25:18.858Z,87.40
2018-06-28T10:28:24.182Z,85.64
2018-06-28T10:31:28.488Z,86.16
2018-06-28T10:34:32.815Z,86.32
2018-06-28T10:37:37.138Z,86.72
2018-06-28T10:40:41.544Z,88.58
2018-06-28T10:43:45.824Z,86.83
2018-06-28T10:46:50.205Z,85.29
2018-06-28T10:49:54.733Z,87.56
2018-06-28T10:52:59.293Z,89.08
2018-06-28T10:56:04.698Z,87.32
2018-06-28T10:59:09.181Z,86.06
2018-06-28T11:02:13.558Z,88.58
2018-06-28T11:05:18.032Z,88.64
2018-06-28T11:08:22.592Z,87.89
2018-06-28T11:11:27.782Z,88.56
2018-06-28T11:14:33.262Z,87.99
2018-06-28T11:17:38.012Z,88.49
2018-06-28T11:20:42.311Z,88.13
2018-06-28T11:23:46.724Z,87.38
2018-06-28T11:26:51.261Z,88.91
2018-06-28T11:29:55.838Z,89.40
2018-06-28T11:33:00.590Z,88.53
2018-06-28T11:36:05.007Z,88.66
2018-06-28T11:39:11.860Z,89.42
2018-06-28T11:42:16.225Z,89.07
2018-06-28T11:45:20.930Z,88.31
2018-06-28T11:48:28.541Z,89.80
2018-06-28T11:51:33.467Z,90.44
2018-06-28T11:54:37.832Z,90.89
2018-06-28T11:57:43.805Z,90.35
2018-06-28T12:00:48.250Z,91.52
2018-06-28T12:03:53.138Z,91.60
2018-06-28T12:06:58.268Z,91.82
2018-06-28T12:10:02.394Z,91.44
2018-06-28T12:13:06.896Z,91.80
2018-06-28T12:16:11.296Z,92.33
2018-06-28T12:19:15.603Z,92.47
2018-06-28T12:22:19.981Z,92.21
2018-06-28T12:25:24.467Z,92.31
2018-06-28T12:28:28.819Z,93.21
2018-06-28T12:31:33.215Z,93.29
2018-06-28T12:34:37.645Z,93.68
2018-06-28T12:37:42.060Z,93.86
2018-06-28T12:40:46.818Z,93.13
2018-06-28T12:43:51.959Z,92.57
2018-06-28T12:49:05.967Z,93.08
2018-06-28T12:52:27.410Z,93.36
2018-06-28T12:56:50.015Z,93.62
2018-06-28T12:59:54.935Z,92.68
2018-06-28T13:02:59.225Z,92.13
2018-06-28T13:06:03.615Z,92.35
2018-06-28T13:09:14.046Z,93.19
2018-06-28T13:12:18.435Z,93.93
2018-06-28T13:15:22.922Z,94.29
2018-06-28T13:18:27.214Z,94.53
2018-06-28T13:21:31.556Z,95.22
2018-06-28T13:24:37.259Z,95.43
2018-06-28T13:27:41.718Z,94.65
2018-06-28T13:30:49.211Z,94.98
2018-06-28T13:33:54.353Z,95.32
2018-06-28T13:36:58.646Z,94.81
2018-06-28T13:40:02.989Z,94.61
2018-06-28T13:43:07.360Z,94.87
2018-06-28T13:46:11.687Z,95.74
2018-06-28T13:49:16.181Z,94.44
2018-06-28T13:52:20.525Z,94.87
2018-06-28T13:55:25.002Z,94.63
2018-06-28T13:58:31.468Z,94.77
2018-06-28T14:01:37.155Z,94.78
2018-06-28T14:04:44.057Z,95.15
2018-06-28T14:07:50.863Z,95.53
2018-06-28T14:10:55.349Z,95.53
2018-06-28T14:13:59.655Z,95.37
2018-06-28T14:17:04.221Z,95.98
2018-06-28T14:20:09.942Z,96.01
2018-06-28T14:23:14.460Z,95.82
2018-06-28T14:26:18.858Z,96.00
2018-06-28T14:29:23.466Z,95.88
2018-06-28T14:32:28.089Z,95.42
2018-06-28T14:35:32.941Z,95.57
2018-06-28T14:38:37.377Z,95.92
2018-06-28T14:41:42.542Z,96.11
2018-06-28T14:44:48.643Z,96.19
2018-06-28T14:47:53.677Z,96.26
2018-06-28T14:50:58.466Z,96.63
2018-06-28T14:54:02.920Z,96.42
2018-06-28T14:57:07.669Z,95.24
2018-06-28T15:00:12.207Z,94.89
2018-06-28T15:03:17.412Z,93.16
2018-06-28T15:06:22.319Z,93.04
2018-06-28T15:09:27.270Z,94.19
2018-06-28T15:12:31.735Z,94.47
2018-06-28T15:15:36.136Z,94.58
2018-06-28T15:18:40.356Z,95.44
2018-06-28T15:21:44.901Z,95.62
2018-06-28T15:24:49.877Z,95.60
2018-06-28T15:27:54.308Z,95.41
2018-06-28T15:30:58.672Z,95.17
2018-06-28T15:34:02.993Z,94.79
2018-06-28T15:37:07.702Z,95.20
2018-06-28T15:40:12.129Z,95.73
2018-06-28T15:43:16.451Z,95.99
2018-06-28T15:46:21.411Z,96.00
2018-06-28T15:49:25.800Z,95.86
2018-06-28T15:52:30.880Z,95.99
2018-06-28T15:55:35.198Z,94.90
2018-06-28T15:58:39.581Z,95.57
2018-06-28T16:01:44.077Z,95.34
2018-06-28T16:04:48.485Z,95.06
2018-06-28T16:07:52.817Z,95.34
2018-06-28T16:10:57.532Z,95.54
2018-06-28T16:14:02.042Z,96.07
2018-06-28T16:17:06.684Z,95.88
2018-06-28T16:20:11.826Z,95.82
2018-06-28T16:23:16.252Z,95.81
2018-06-28T16:26:20.745Z,95.18
2018-06-28T16:29:25.197Z,95.66
2018-06-28T16:32:29.570Z,95.24
2018-06-28T16:35:37.738Z,95.53
2018-06-28T16:38:43.661Z,95.56
2018-06-28T16:41:48.036Z,95.96
2018-06-28T16:44:53.732Z,95.77
2018-06-28T16:47:58.427Z,96.15
2018-06-28T16:51:02.835Z,96.17
2018-06-28T16:54:07.151Z,96.06
2018-06-28T16:57:11.586Z,95.93
2018-06-28T17:00:16.298Z,96.25
2018-06-28T17:03:21.105Z,96.14
2018-06-28T17:06:25.509Z,96.04
2018-06-28T17:09:30.313Z,96.54
2018-06-28T17:12:35.035Z,96.28
2018-06-28T17:15:39.435Z,95.95
2018-06-28T17:18:44.502Z,95.99
2018-06-28T17:21:49.605Z,96.01
2018-06-28T17:24:53.946Z,96.26
2018-06-28T17:27:58.305Z,96.31
2018-06-28T17:31:03.462Z,96.30
2018-06-28T17:34:07.877Z,95.98
2018-06-28T17:37:12.335Z,95.94
2018-06-28T17:40:16.785Z,95.68
2018-06-28T17:43:21.121Z,96.08
2018-06-28T17:46:25.786Z,96.08
2018-06-28T17:49:30.138Z,96.77
2018-06-28T17:52:34.482Z,96.56
2018-06-28T17:55:39.105Z,96.81
2018-06-28T17:58:43.302Z,96.37
2018-06-28T18:01:48.392Z,96.19
2018-06-28T18:04:52.795Z,96.65
2018-06-28T18:07:57.201Z,96.83
2018-06-28T18:11:01.706Z,97.21
2018-06-28T18:14:06.267Z,96.90
2018-06-28T18:17:10.661Z,97.06
2018-06-28T18:20:15.220Z,96.89
2018-06-28T18:23:19.538Z,96.46
2018-06-28T18:26:23.902Z,96.74
2018-06-28T18:29:28.614Z,96.61
2018-06-28T18:32:35.704Z,96.77
2018-06-28T18:35:41.361Z,96.60
2018-06-28T18:38:45.803Z,96.46
2018-06-28T18:41:50.548Z,96.74
2018-06-28T18:44:55.229Z,96.97
2018-06-28T18:48:00.026Z,96.73
2018-06-28T18:51:04.576Z,97.27
2018-06-28T18:54:09.265Z,97.20
2018-06-28T18:57:15.207Z,97.28
2018-06-28T19:00:19.952Z,97.42
2018-06-28T19:03:24.787Z,97.09
2018-06-28T19:06:29.448Z,97.36
2018-06-28T19:09:39.120Z,96.92
2018-06-28T19:12:43.684Z,97.19
2018-06-28T19:15:53.320Z,97.07
2018-06-28T19:18:57.825Z,97.27
2018-06-28T19:22:07.654Z,97.05
2018-06-28T19:25:12.233Z,97.12
2018-06-28T19:28:16.728Z,97.37
2018-06-28T19:31:27.188Z,97.18
2018-06-28T19:34:32.141Z,97.18
2018-06-28T19:37:41.858Z,97.62
2018-06-28T19:40:51.789Z,97.48
2018-06-28T19:43:56.196Z,97.28
2018-06-28T19:47:00.655Z,97.41
2018-06-28T19:50:10.450Z,97.34
2018-06-28T19:53:16.275Z,97.25
2018-06-28T19:56:20.657Z,97.50
2018-06-28T19:59:25.152Z,97.81
2018-06-28T20:02:34.729Z,97.45
2018-06-28T20:05:40.005Z,97.91
2018-06-28T20:08:44.459Z,97.55
2018-06-28T20:11:48.786Z,97.34
2018-06-28T20:14:58.676Z,98.12
2018-06-28T20:18:08.185Z,97.56
2018-06-28T20:21:12.699Z,97.36
2018-06-28T20:24:16.944Z,97.15
2018-06-28T20:27:26.655Z,97.37
2018-06-28T20:30:37.230Z,97.19
2018-06-28T20:33:47.505Z,96.79
2018-06-28T20:36:52.134Z,96.98
2018-06-28T20:39:56.905Z,97.29
2018-06-28T20:43:01.465Z,97.76
2018-06-28T20:46:06.989Z,97.62
2018-06-28T20:49:11.637Z,97.85
2018-06-28T20:52:15.816Z,97.82
2018-06-28T20:55:20.311Z,98.35
2018-06-28T20:58:24.721Z,98.25
2018-06-28T21:01:29.029Z,98.46
2018-06-28T21:04:33.654Z,98.51
2018-06-28T21:07:38.109Z,98.46
2018-06-28T21:10:42.688Z,98.47
2018-06-28T21:13:47.058Z,98.55
2018-06-28T21:16:51.967Z,98.53
2018-06-28T21:19:56.275Z,98.14
2018-06-28T21:23:00.901Z,97.90
2018-06-28T21:26:06.605Z,97.68
2018-06-28T21:29:11.008Z,97.89
2018-06-28T21:32:15.360Z,97.70
2018-06-28T21:35:19.683Z,97.43
2018-06-28T21:38:24.014Z,97.06
2018-06-28T21:41:28.466Z,97.31
2018-06-28T21:44:33.036Z,97.12
2018-06-28T21:47:37.861Z,97.17
2018-06-28T21:50:41.978Z,96.93
2018-06-28T21:53:46.294Z,96.85
2018-06-28T21:56:50.830Z,96.81
2018-06-28T21:59:55.132Z,96.80
2018-06-28T22:03:00.432Z,96.80
2018-06-28T22:06:04.734Z,96.48
2018-06-28T22:09:09.054Z,96.92
2018-06-28T22:12:13.345Z,96.65
2018-06-28T22:15:22.201Z,96.55
2018-06-28T22:18:26.564Z,96.43
2018-06-28T22:21:30.858Z,96.39
2018-06-28T22:24:35.202Z,96.25
2018-06-28T22:27:40.362Z,96.11
2018-06-28T22:30:44.672Z,96.67
2018-06-28T22:33:48.971Z,97.71
2018-06-28T22:36:53.303Z,98.12
2018-06-28T22:39:57.597Z,98.27
2018-06-28T22:43:02.434Z,98.56
2018-06-28T22:46:06.760Z,98.28
2018-06-28T22:49:11.117Z,97.92
2018-06-28T22:52:15.682Z,97.60
2018-06-28T22:55:19.985Z,97.28
2018-06-28T22:58:24.914Z,97.17
2018-06-28T23:01:29.084Z,96.81
2018-06-28T23:04:33.535Z,96.94
2018-06-28T23:07:37.831Z,97.39
2018-06-28T23:10:42.130Z,97.32
2018-06-28T23:13:46.447Z,97.26
2018-06-28T23:16:50.780Z,97.24
2018-06-28T23:19:55.276Z,97.68
2018-06-28T23:22:59.793Z,97.25
2018-06-28T23:26:04.142Z,95.99
2018-06-28T23:29:08.428Z,96.21
2018-06-28T23:32:13.016Z,96.53
2018-06-28T23:35:17.353Z,97.39
2018-06-28T23:38:21.645Z,98.42
2018-06-28T23:41:26.562Z,98.82
2018-06-28T23:44:30.839Z,98.42
2018-06-28T23:47:35.178Z,97.99
2018-06-28T23:50:39.627Z,98.64
2018-06-28T23:53:43.978Z,99.21
2018-06-28T23:56:48.416Z,99.51
2018-06-28T23:59:52.722Z,99.66
